createdAt,value
2023-05-10T00:00:16.571Z,18.89
2023-05-10T00:01:16.386Z,18.79
2023-05-10T00:02:16.467Z,18.82
2023-05-10T00:03:16.427Z,18.85
2023-05-10T00:04:16.439Z,18.84
2023-05-10T00:05:16.333Z,18.82
2023-05-10T00:06:16.311Z,18.81
2023-05-10T00:07:16.326Z,18.81
2023-05-10T00:08:16.316Z,18.78
2023-05-10T00:09:16.280Z,18.81
2023-05-10T00:10:16.504Z,18.65
2023-05-10T00:11:16.192Z,18.68
2023-05-10T00:12:16.118Z,18.55
2023-05-10T00:13:16.087Z,18.58
2023-05-10T00:14:16.026Z,18.58
2023-05-10T00:15:15.969Z,18.58
2023-05-10T00:16:15.938Z,18.58
2023-05-10T00:17:15.897Z,18.55
2023-05-10T00:18:15.861Z,18.58
2023-05-10T00:19:16.089Z,18.60
2023-05-10T00:20:16.010Z,18.61
2023-05-10T00:21:15.720Z,18.61
2023-05-10T00:22:15.742Z,18.61
2023-05-10T00:23:15.768Z,18.64
2023-05-10T00:24:15.604Z,18.62
2023-05-10T00:25:15.553Z,18.65
2023-05-10T00:26:15.506Z,18.62
2023-05-10T00:27:15.495Z,18.67
2023-05-10T00:28:15.414Z,18.67
2023-05-10T00:29:15.360Z,18.67
2023-05-10T00:30:15.453Z,18.70
2023-05-10T00:31:15.257Z,18.68
2023-05-10T00:32:15.248Z,18.65
2023-05-10T00:33:15.140Z,18.65
2023-05-10T00:34:15.084Z,18.67
2023-05-10T00:35:15.048Z,18.65
2023-05-10T00:36:14.975Z,18.65
2023-05-10T00:37:14.944Z,18.65
2023-05-10T00:38:14.877Z,18.64
2023-05-10T00:39:14.814Z,18.55
2023-05-10T00:40:15.037Z,18.41
2023-05-10T00:41:14.719Z,18.48
2023-05-10T00:42:14.693Z,18.51
2023-05-10T00:43:14.642Z,18.51
2023-05-10T00:44:14.598Z,18.48
2023-05-10T00:45:14.544Z,18.43
2023-05-10T00:46:14.544Z,18.50
2023-05-10T00:47:14.430Z,18.53
2023-05-10T00:48:14.395Z,18.51
2023-05-10T00:49:14.325Z,18.51
2023-05-10T00:50:14.619Z,18.53
2023-05-10T00:51:14.395Z,18.53
2023-05-10T00:52:14.166Z,18.54
2023-05-10T00:53:14.169Z,18.53
2023-05-10T00:54:14.083Z,18.54
2023-05-10T00:55:14.038Z,18.53
2023-05-10T00:56:14.010Z,18.54
2023-05-10T00:57:13.967Z,18.53
2023-05-10T00:58:13.920Z,18.53
2023-05-10T00:59:13.878Z,18.48
2023-05-10T01:00:13.992Z,18.50
2023-05-10T01:01:13.816Z,18.50
2023-05-10T01:02:13.828Z,18.51
2023-05-10T01:03:13.839Z,18.50
2023-05-10T01:04:13.675Z,18.51
2023-05-10T01:05:13.655Z,18.48
2023-05-10T01:06:13.579Z,18.47
2023-05-10T01:07:13.531Z,18.47
2023-05-10T01:08:13.500Z,18.43
2023-05-10T01:09:13.454Z,18.41
2023-05-10T01:10:13.567Z,18.43
2023-05-10T01:11:13.422Z,18.13
2023-05-10T01:12:13.400Z,18.20
2023-05-10T01:13:13.437Z,18.23
2023-05-10T01:14:13.340Z,18.23
2023-05-10T01:15:13.313Z,18.23
2023-05-10T01:16:13.388Z,18.19
2023-05-10T01:17:13.284Z,18.13
2023-05-10T01:18:13.266Z,17.95
2023-05-10T01:19:13.243Z,17.92
2023-05-10T01:20:13.234Z,17.86
2023-05-10T01:21:13.221Z,17.89
2023-05-10T01:22:13.233Z,17.88
2023-05-10T01:23:13.226Z,17.84
2023-05-10T01:24:13.190Z,17.88
2023-05-10T01:25:13.165Z,17.85
2023-05-10T01:26:13.129Z,17.74
2023-05-10T01:27:13.097Z,17.81
2023-05-10T01:28:13.053Z,17.78
2023-05-10T01:29:13.041Z,17.66
2023-05-10T01:30:15.309Z,17.56
2023-05-10T01:31:12.993Z,17.57
2023-05-10T01:32:12.885Z,17.57
2023-05-10T01:33:12.852Z,17.26
2023-05-10T01:34:12.795Z,17.06
2023-05-10T01:35:12.738Z,17.12
2023-05-10T01:36:12.693Z,17.01
2023-05-10T01:37:12.658Z,16.92
2023-05-10T01:38:12.608Z,17.09
2023-05-10T01:39:12.545Z,16.91
2023-05-10T01:40:12.506Z,16.98
2023-05-10T01:41:12.460Z,17.06
2023-05-10T01:42:12.442Z,17.01
2023-05-10T01:43:12.374Z,17.08
2023-05-10T01:44:12.339Z,17.15
2023-05-10T01:45:12.317Z,16.39
2023-05-10T01:46:12.334Z,16.75
2023-05-10T01:47:12.211Z,16.77
2023-05-10T01:48:12.217Z,16.89
2023-05-10T01:49:12.115Z,16.98
2023-05-10T01:50:12.073Z,17.04
2023-05-10T01:51:12.037Z,17.12
2023-05-10T01:52:11.977Z,17.15
2023-05-10T01:53:11.931Z,17.15
2023-05-10T01:54:11.884Z,17.19
2023-05-10T01:55:11.872Z,17.21
2023-05-10T01:56:11.802Z,17.18
2023-05-10T01:57:11.749Z,17.23
2023-05-10T01:58:11.917Z,17.29
2023-05-10T01:59:12.066Z,17.25
2023-05-10T02:00:12.233Z,17.19
2023-05-10T02:01:12.195Z,17.09
2023-05-10T02:02:12.130Z,16.80
2023-05-10T02:03:12.158Z,17.02
2023-05-10T02:04:12.116Z,16.94
2023-05-10T02:05:11.992Z,16.88
2023-05-10T02:06:11.944Z,16.85
2023-05-10T02:07:11.887Z,16.85
2023-05-10T02:08:11.888Z,16.82
2023-05-10T02:09:11.864Z,16.70
2023-05-10T02:10:11.926Z,16.77
2023-05-10T02:11:12.061Z,16.70
2023-05-10T02:12:12.147Z,16.68
2023-05-10T02:13:12.478Z,16.70
2023-05-10T02:14:12.634Z,16.75
2023-05-10T02:15:12.816Z,16.67
2023-05-10T02:16:13.039Z,16.40
2023-05-10T02:17:13.189Z,16.44
2023-05-10T02:18:13.300Z,16.52
2023-05-10T02:19:13.402Z,16.60
2023-05-10T02:20:13.847Z,16.44
2023-05-10T02:21:13.728Z,16.33
2023-05-10T02:22:13.626Z,16.40
2023-05-10T02:23:13.609Z,16.56
2023-05-10T02:24:13.587Z,16.61
2023-05-10T02:25:13.564Z,16.64
2023-05-10T02:26:13.543Z,16.60
2023-05-10T02:27:13.526Z,16.66
2023-05-10T02:28:13.552Z,16.71
2023-05-10T02:29:13.565Z,16.72
2023-05-10T02:30:13.660Z,16.78
2023-05-10T02:31:13.579Z,16.80
2023-05-10T02:32:13.777Z,16.64
2023-05-10T02:33:13.638Z,16.72
2023-05-10T02:34:13.667Z,16.74
2023-05-10T02:35:13.702Z,16.72
2023-05-10T02:36:13.710Z,16.71
2023-05-10T02:37:13.728Z,16.77
2023-05-10T02:38:13.772Z,16.80
2023-05-10T02:39:13.816Z,16.84
2023-05-10T02:40:13.810Z,16.85
2023-05-10T02:41:13.848Z,16.89
2023-05-10T02:42:13.855Z,16.87
2023-05-10T02:43:13.891Z,16.84
2023-05-10T02:44:13.918Z,16.89
2023-05-10T02:45:13.957Z,16.91
2023-05-10T02:46:14.040Z,16.92
2023-05-10T02:47:13.995Z,16.94
2023-05-10T02:48:14.019Z,16.96
2023-05-10T02:49:14.005Z,16.85
2023-05-10T02:50:14.260Z,16.88
2023-05-10T02:51:14.061Z,16.81
2023-05-10T02:52:14.167Z,16.88
2023-05-10T02:53:14.138Z,16.80
2023-05-10T02:54:14.138Z,16.82
2023-05-10T02:55:14.172Z,16.61
2023-05-10T02:56:14.192Z,16.64
2023-05-10T02:57:14.202Z,16.66
2023-05-10T02:58:14.226Z,16.42
2023-05-10T02:59:14.271Z,16.54
2023-05-10T03:00:14.469Z,16.46
2023-05-10T03:01:14.350Z,16.47
2023-05-10T03:02:14.358Z,16.39
2023-05-10T03:03:14.394Z,16.26
2023-05-10T03:04:14.455Z,16.40
2023-05-10T03:05:14.447Z,16.50
2023-05-10T03:06:14.482Z,16.44
2023-05-10T03:07:14.502Z,16.19
2023-05-10T03:08:14.512Z,16.33
2023-05-10T03:09:14.537Z,16.36
2023-05-10T03:10:14.934Z,16.40
2023-05-10T03:11:14.577Z,16.47
2023-05-10T03:12:14.580Z,16.47
2023-05-10T03:13:14.703Z,16.35
2023-05-10T03:14:14.639Z,16.04
2023-05-10T03:15:14.659Z,15.85
2023-05-10T03:16:14.686Z,15.90
2023-05-10T03:17:14.654Z,16.04
2023-05-10T03:18:14.655Z,16.11
2023-05-10T03:19:14.673Z,16.19
2023-05-10T03:20:14.820Z,16.08
2023-05-10T03:21:14.696Z,16.01
2023-05-10T03:22:14.732Z,15.97
2023-05-10T03:23:14.790Z,16.09
2023-05-10T03:24:14.802Z,16.05
2023-05-10T03:25:14.868Z,16.02
2023-05-10T03:26:14.928Z,16.09
2023-05-10T03:27:14.901Z,16.18
2023-05-10T03:28:14.931Z,16.16
2023-05-10T03:29:14.970Z,15.81
2023-05-10T03:30:15.228Z,15.94
2023-05-10T03:31:15.061Z,16.09
2023-05-10T03:32:15.062Z,16.15
2023-05-10T03:33:15.145Z,16.18
2023-05-10T03:34:15.127Z,16.13
2023-05-10T03:35:15.206Z,16.22
2023-05-10T03:36:15.176Z,16.27
2023-05-10T03:37:15.161Z,16.33
2023-05-10T03:38:15.158Z,16.27
2023-05-10T03:39:15.163Z,16.35
2023-05-10T03:40:15.327Z,16.26
2023-05-10T03:41:15.187Z,16.20
2023-05-10T03:42:15.220Z,16.25
2023-05-10T03:43:15.249Z,16.01
2023-05-10T03:44:15.216Z,16.15
2023-05-10T03:45:15.185Z,16.26
2023-05-10T03:46:15.211Z,16.32
2023-05-10T03:47:15.150Z,16.30
2023-05-10T03:48:15.139Z,16.35
2023-05-10T03:49:15.121Z,16.39
2023-05-10T03:50:15.341Z,16.32
2023-05-10T03:51:15.071Z,16.39
2023-05-10T03:52:15.046Z,16.35
2023-05-10T03:53:15.007Z,16.15
2023-05-10T03:54:14.987Z,16.29
2023-05-10T03:55:14.958Z,16.32
2023-05-10T03:56:14.963Z,16.26
2023-05-10T03:57:15.002Z,16.19
2023-05-10T03:58:14.996Z,16.20
2023-05-10T03:59:15.003Z,16.22
2023-05-10T04:00:15.224Z,16.20
2023-05-10T04:01:15.026Z,16.01
2023-05-10T04:02:15.072Z,16.00
2023-05-10T04:03:15.061Z,16.01
2023-05-10T04:04:15.030Z,16.04
2023-05-10T04:05:15.092Z,16.08
2023-05-10T04:06:15.277Z,15.90
2023-05-10T04:07:15.363Z,15.88
2023-05-10T04:08:15.500Z,15.80
2023-05-10T04:09:15.666Z,15.66
2023-05-10T04:10:16.148Z,15.56
2023-05-10T04:11:15.840Z,15.66
2023-05-10T04:12:15.877Z,15.60
2023-05-10T04:13:15.919Z,15.68
2023-05-10T04:14:15.875Z,15.83
2023-05-10T04:15:15.882Z,15.84
2023-05-10T04:16:15.895Z,15.84
2023-05-10T04:17:15.888Z,15.81
2023-05-10T04:18:15.823Z,15.92
2023-05-10T04:19:15.815Z,15.91
2023-05-10T04:20:16.082Z,16.00
2023-05-10T04:21:15.757Z,15.94
2023-05-10T04:22:15.755Z,15.98
2023-05-10T04:23:15.746Z,15.97
2023-05-10T04:24:15.770Z,15.94
2023-05-10T04:25:15.768Z,16.07
2023-05-10T04:26:15.782Z,15.53
2023-05-10T04:27:15.812Z,15.64
2023-05-10T04:28:15.838Z,15.73
2023-05-10T04:29:15.853Z,15.85
2023-05-10T04:30:15.990Z,15.88
2023-05-10T04:31:15.904Z,15.92
2023-05-10T04:32:15.837Z,16.02
2023-05-10T04:33:15.836Z,16.08
2023-05-10T04:34:15.849Z,16.07
2023-05-10T04:35:15.832Z,16.09
2023-05-10T04:36:15.832Z,16.12
2023-05-10T04:37:15.787Z,16.18
2023-05-10T04:38:15.765Z,16.19
2023-05-10T04:39:15.756Z,16.18
2023-05-10T04:40:15.926Z,16.20
2023-05-10T04:41:15.705Z,16.20
2023-05-10T04:42:15.702Z,16.13
2023-05-10T04:43:15.677Z,15.74
2023-05-10T04:44:15.659Z,15.84
2023-05-10T04:45:15.742Z,15.94
2023-05-10T04:46:15.901Z,15.94
2023-05-10T04:47:16.025Z,15.95
2023-05-10T04:48:16.138Z,15.84
2023-05-10T04:49:16.257Z,15.78
2023-05-10T04:50:16.680Z,15.88
2023-05-10T04:51:16.618Z,15.97
2023-05-10T04:52:16.787Z,16.04
2023-05-10T04:53:16.888Z,16.09
2023-05-10T04:54:16.997Z,16.11
2023-05-10T04:55:17.116Z,16.16
2023-05-10T04:56:17.248Z,16.19
2023-05-10T04:57:17.368Z,16.19
2023-05-10T04:58:17.529Z,16.05
2023-05-10T04:59:17.694Z,16.19
2023-05-10T05:00:18.037Z,16.18
2023-05-10T05:01:17.808Z,16.07
2023-05-10T05:02:17.751Z,16.15
2023-05-10T05:03:17.799Z,16.20
2023-05-10T05:04:17.719Z,16.19
2023-05-10T05:05:17.684Z,16.02
2023-05-10T05:06:17.632Z,15.91
2023-05-10T05:07:17.750Z,15.98
2023-05-10T05:08:17.868Z,15.90
2023-05-10T05:09:18.001Z,15.92
2023-05-10T05:10:18.529Z,15.94
2023-05-10T05:11:18.353Z,16.01
2023-05-10T05:12:18.295Z,16.08
2023-05-10T05:13:18.300Z,16.05
2023-05-10T05:14:18.219Z,16.11
2023-05-10T05:15:18.200Z,16.09
2023-05-10T05:16:18.262Z,16.16
2023-05-10T05:17:18.137Z,16.20
2023-05-10T05:18:18.121Z,15.95
2023-05-10T05:19:18.101Z,15.98
2023-05-10T05:20:18.312Z,16.15
2023-05-10T05:21:18.074Z,16.09
2023-05-10T05:22:19.606Z,16.05
2023-05-10T05:23:18.023Z,15.92
2023-05-10T05:24:18.068Z,16.02
2023-05-10T05:25:17.985Z,16.02
2023-05-10T05:26:17.992Z,16.02
2023-05-10T05:27:17.986Z,16.04
2023-05-10T05:28:17.984Z,16.08
2023-05-10T05:29:18.095Z,16.01
2023-05-10T05:30:18.400Z,16.13
2023-05-10T05:31:18.225Z,16.18
2023-05-10T05:32:18.181Z,16.13
2023-05-10T05:33:18.165Z,16.23
2023-05-10T05:34:18.172Z,16.33
2023-05-10T05:35:18.345Z,16.35
2023-05-10T05:36:18.097Z,16.43
2023-05-10T05:37:18.082Z,16.43
2023-05-10T05:38:18.073Z,16.43
2023-05-10T05:39:18.071Z,16.42
2023-05-10T05:40:18.045Z,16.40
2023-05-10T05:41:18.006Z,16.50
2023-05-10T05:42:18.004Z,16.52
2023-05-10T05:43:18.010Z,16.50
2023-05-10T05:44:18.066Z,16.50
2023-05-10T05:45:18.376Z,16.56
2023-05-10T05:46:18.117Z,16.54
2023-05-10T05:47:17.930Z,16.60
2023-05-10T05:48:18.027Z,16.57
2023-05-10T05:49:17.966Z,16.59
2023-05-10T05:50:18.079Z,16.63
2023-05-10T05:51:18.165Z,16.61
2023-05-10T05:52:18.481Z,16.52
2023-05-10T05:53:18.611Z,16.61
2023-05-10T05:54:18.759Z,16.53
2023-05-10T05:55:19.094Z,16.63
2023-05-10T05:56:18.926Z,16.67
2023-05-10T05:57:18.892Z,16.71
2023-05-10T05:58:19.629Z,16.70
2023-05-10T05:59:19.677Z,16.71
2023-05-10T06:00:19.631Z,16.75
2023-05-10T06:01:18.834Z,16.66
2023-05-10T06:02:18.826Z,16.71
2023-05-10T06:03:18.935Z,16.74
2023-05-10T06:04:18.806Z,16.61
2023-05-10T06:05:18.804Z,16.72
2023-05-10T06:06:18.733Z,16.77
2023-05-10T06:07:18.720Z,16.78
2023-05-10T06:08:18.677Z,16.82
2023-05-10T06:09:18.667Z,16.78
2023-05-10T06:10:18.634Z,16.80
2023-05-10T06:11:18.623Z,16.72
2023-05-10T06:12:18.597Z,16.81
2023-05-10T06:13:18.656Z,16.85
2023-05-10T06:14:18.592Z,16.88
2023-05-10T06:15:18.700Z,16.88
2023-05-10T06:16:18.613Z,16.92
2023-05-10T06:17:18.575Z,16.95
2023-05-10T06:18:18.587Z,16.99
2023-05-10T06:19:18.653Z,17.01
2023-05-10T06:20:18.634Z,16.99
2023-05-10T06:21:18.625Z,16.95
2023-05-10T06:22:18.660Z,16.74
2023-05-10T06:23:18.670Z,16.92
2023-05-10T06:24:18.705Z,16.89
2023-05-10T06:25:18.837Z,16.94
2023-05-10T06:26:18.675Z,16.94
2023-05-10T06:27:18.703Z,16.95
2023-05-10T06:28:18.807Z,16.96
2023-05-10T06:29:18.931Z,17.01
2023-05-10T06:30:19.047Z,17.02
2023-05-10T06:31:19.394Z,16.85
2023-05-10T06:32:19.409Z,16.92
2023-05-10T06:33:19.567Z,16.88
2023-05-10T06:34:19.712Z,16.89
2023-05-10T06:35:19.935Z,16.82
2023-05-10T06:36:19.963Z,16.80
2023-05-10T06:37:20.195Z,16.88
2023-05-10T06:38:20.288Z,16.95
2023-05-10T06:39:20.451Z,17.01
2023-05-10T06:40:20.612Z,17.06
2023-05-10T06:41:22.578Z,17.09
2023-05-10T06:42:20.715Z,17.13
2023-05-10T06:43:20.667Z,17.13
2023-05-10T06:44:20.686Z,17.19
2023-05-10T06:45:20.730Z,17.08
2023-05-10T06:46:20.587Z,17.16
2023-05-10T06:47:20.514Z,17.21
2023-05-10T06:48:20.494Z,17.23
2023-05-10T06:49:20.452Z,17.29
2023-05-10T06:50:20.413Z,17.32
2023-05-10T06:51:20.366Z,17.39
2023-05-10T06:52:20.343Z,17.37
2023-05-10T06:53:20.284Z,17.41
2023-05-10T06:54:20.224Z,17.46
2023-05-10T06:55:20.196Z,17.47
2023-05-10T06:56:20.133Z,17.49
2023-05-10T06:57:31.288Z,17.47
2023-05-10T06:58:21.074Z,17.50
2023-05-10T06:59:20.042Z,17.53
2023-05-10T07:00:20.409Z,17.57
2023-05-10T07:01:20.108Z,17.57
2023-05-10T07:02:19.933Z,17.43
2023-05-10T07:03:19.861Z,17.53
2023-05-10T07:04:19.812Z,16.64
2023-05-10T07:05:20.553Z,16.50
2023-05-10T07:06:32.350Z,16.43
2023-05-10T07:07:20.630Z,16.50
2023-05-10T07:08:19.571Z,16.68
2023-05-10T07:09:19.542Z,16.78
2023-05-10T07:10:19.500Z,16.88
2023-05-10T07:11:19.431Z,16.96
2023-05-10T07:12:19.401Z,17.01
2023-05-10T07:13:19.447Z,17.13
2023-05-10T07:14:19.277Z,17.19
2023-05-10T07:15:21.137Z,17.26
2023-05-10T07:16:20.262Z,17.30
2023-05-10T07:17:19.210Z,17.33
2023-05-10T07:18:19.111Z,17.32
2023-05-10T07:19:19.026Z,17.37
2023-05-10T07:20:18.979Z,17.36
2023-05-10T07:21:18.969Z,17.32
2023-05-10T07:22:19.005Z,17.39
2023-05-10T07:23:18.915Z,17.41
2023-05-10T07:24:18.805Z,17.51
2023-05-10T07:25:18.846Z,17.53
2023-05-10T07:26:18.703Z,17.57
2023-05-10T07:27:18.662Z,17.58
2023-05-10T07:28:18.617Z,17.54
2023-05-10T07:29:18.575Z,17.46
2023-05-10T07:30:18.577Z,17.46
2023-05-10T07:31:18.475Z,17.51
2023-05-10T07:32:18.513Z,17.57
2023-05-10T07:33:18.448Z,17.58
2023-05-10T07:34:18.393Z,17.60
2023-05-10T07:35:18.530Z,17.63
2023-05-10T07:36:18.360Z,17.57
2023-05-10T07:37:18.324Z,17.60
2023-05-10T07:38:18.323Z,17.71
2023-05-10T07:39:26.510Z,17.68
2023-05-10T07:40:19.237Z,17.70
2023-05-10T07:41:18.186Z,17.75
2023-05-10T07:42:18.155Z,17.66
2023-05-10T07:43:18.104Z,17.78
2023-05-10T07:44:18.037Z,17.82
2023-05-10T07:45:18.155Z,17.84
2023-05-10T07:46:17.952Z,17.89
2023-05-10T07:47:17.894Z,17.93
2023-05-10T07:48:17.838Z,17.86
2023-05-10T07:49:17.813Z,17.61
2023-05-10T07:50:17.759Z,17.64
2023-05-10T07:51:17.725Z,17.73
2023-05-10T07:52:17.683Z,17.75
2023-05-10T07:53:17.620Z,17.75
2023-05-10T07:54:17.579Z,17.71
2023-05-10T07:55:17.665Z,17.70
2023-05-10T07:56:17.481Z,17.77
2023-05-10T07:57:17.469Z,17.80
2023-05-10T07:58:17.456Z,17.88
2023-05-10T07:59:17.430Z,17.84
2023-05-10T08:00:17.546Z,17.89
2023-05-10T08:01:17.431Z,17.93
2023-05-10T08:02:17.469Z,17.98
2023-05-10T08:03:17.459Z,17.91
2023-05-10T08:04:17.383Z,17.95
2023-05-10T08:05:17.486Z,18.02
2023-05-10T08:06:17.258Z,18.02
2023-05-10T08:07:17.240Z,18.08
2023-05-10T08:08:17.211Z,18.12
2023-05-10T08:09:17.150Z,18.12
2023-05-10T08:10:17.105Z,18.15
2023-05-10T08:11:17.062Z,18.17
2023-05-10T08:12:16.997Z,18.22
2023-05-10T08:13:16.971Z,18.23
2023-05-10T08:14:16.926Z,18.25
2023-05-10T08:15:16.988Z,18.25
2023-05-10T08:16:16.855Z,18.16
2023-05-10T08:17:18.215Z,18.20
2023-05-10T08:18:16.862Z,18.17
2023-05-10T08:19:16.778Z,18.22
2023-05-10T08:20:16.760Z,18.19
2023-05-10T08:21:16.783Z,17.98
2023-05-10T08:22:16.738Z,17.96
2023-05-10T08:23:16.720Z,17.99
2023-05-10T08:24:16.726Z,17.95
2023-05-10T08:25:16.964Z,17.96
2023-05-10T08:26:16.763Z,18.02
2023-05-10T08:27:16.762Z,17.99
2023-05-10T08:28:16.763Z,17.96
2023-05-10T08:29:16.714Z,17.98
2023-05-10T08:30:16.695Z,18.03
2023-05-10T08:31:16.827Z,18.08
2023-05-10T08:32:16.777Z,18.12
2023-05-10T08:33:16.996Z,18.15
2023-05-10T08:34:17.136Z,18.16
2023-05-10T08:35:17.513Z,18.25
2023-05-10T08:36:17.303Z,18.27
2023-05-10T08:37:18.158Z,18.32
2023-05-10T08:38:17.546Z,18.32
2023-05-10T08:39:29.291Z,18.33
2023-05-10T08:40:18.453Z,18.40
2023-05-10T08:41:17.387Z,18.44
2023-05-10T08:42:17.304Z,18.39
2023-05-10T08:43:18.679Z,18.35
2023-05-10T08:44:17.173Z,18.47
2023-05-10T08:45:17.379Z,18.48
2023-05-10T08:46:17.071Z,18.50
2023-05-10T08:47:17.028Z,18.53
2023-05-10T08:48:16.936Z,18.57
2023-05-10T08:49:16.871Z,18.58
2023-05-10T08:50:16.847Z,18.62
2023-05-10T08:51:16.791Z,18.64
2023-05-10T08:52:16.712Z,18.51
2023-05-10T08:53:16.642Z,18.64
2023-05-10T08:54:16.584Z,18.67
2023-05-10T08:55:17.751Z,18.70
2023-05-10T08:56:16.455Z,18.74
2023-05-10T08:57:16.412Z,18.74
2023-05-10T08:58:16.333Z,18.74
2023-05-10T08:59:16.259Z,18.76
2023-05-10T09:00:16.311Z,18.44
2023-05-10T09:01:16.206Z,18.47
2023-05-10T09:02:17.378Z,18.55
2023-05-10T09:03:16.228Z,18.61
2023-05-10T09:04:16.293Z,18.62
2023-05-10T09:05:16.307Z,18.61
2023-05-10T09:06:16.724Z,18.68
2023-05-10T09:07:16.031Z,18.64
2023-05-10T09:08:15.974Z,18.64
2023-05-10T09:09:15.937Z,18.53
2023-05-10T09:10:15.930Z,18.57
2023-05-10T09:11:15.895Z,18.61
2023-05-10T09:12:16.718Z,18.68
2023-05-10T09:13:15.843Z,18.71
2023-05-10T09:14:15.864Z,18.65
2023-05-10T09:15:16.015Z,18.57
2023-05-10T09:16:21.804Z,18.62
2023-05-10T09:17:16.756Z,18.61
2023-05-10T09:18:15.698Z,18.60
2023-05-10T09:19:15.616Z,18.15
2023-05-10T09:20:15.497Z,18.16
2023-05-10T09:21:15.462Z,18.29
2023-05-10T09:22:15.389Z,18.33
2023-05-10T09:23:15.334Z,18.23
2023-05-10T09:24:15.288Z,17.96
2023-05-10T09:25:15.392Z,17.92
2023-05-10T09:26:15.187Z,17.92
2023-05-10T09:27:15.137Z,17.92
2023-05-10T09:28:15.069Z,17.75
2023-05-10T09:29:16.008Z,17.91
2023-05-10T09:30:14.955Z,17.98
2023-05-10T09:31:14.930Z,17.88
2023-05-10T09:32:14.881Z,18.01
2023-05-10T09:33:15.768Z,18.08
2023-05-10T09:34:14.762Z,18.12
2023-05-10T09:35:14.867Z,18.13
2023-05-10T09:36:14.672Z,18.16
2023-05-10T09:37:14.642Z,18.23
2023-05-10T09:38:14.590Z,18.29
2023-05-10T09:39:14.546Z,18.25
2023-05-10T09:40:14.497Z,18.02
2023-05-10T09:41:14.469Z,17.93
2023-05-10T09:42:14.463Z,17.95
2023-05-10T09:43:14.437Z,17.99
2023-05-10T09:44:14.415Z,17.89
2023-05-10T09:45:14.615Z,17.75
2023-05-10T09:46:14.535Z,17.88
2023-05-10T09:47:14.392Z,17.77
2023-05-10T09:48:14.418Z,17.77
2023-05-10T09:49:14.352Z,17.89
2023-05-10T09:50:14.346Z,17.93
2023-05-10T09:51:14.303Z,17.98
2023-05-10T09:52:14.296Z,17.74
2023-05-10T09:53:14.281Z,17.78
2023-05-10T09:54:14.295Z,17.78
2023-05-10T09:55:14.419Z,17.85
2023-05-10T09:56:14.239Z,17.93
2023-05-10T09:57:14.220Z,17.99
2023-05-10T09:58:14.229Z,17.98
2023-05-10T09:59:14.188Z,18.01
2023-05-10T10:00:14.187Z,18.02
2023-05-10T10:01:14.151Z,17.99
2023-05-10T10:02:14.111Z,18.06
2023-05-10T10:03:14.114Z,18.03
2023-05-10T10:04:14.096Z,18.02
2023-05-10T10:05:14.242Z,17.91
2023-05-10T10:06:26.410Z,17.86
2023-05-10T10:07:15.051Z,17.86
2023-05-10T10:08:14.073Z,17.91
2023-05-10T10:09:13.954Z,17.98
2023-05-10T10:10:13.901Z,17.63
2023-05-10T10:11:13.862Z,17.80
2023-05-10T10:12:13.803Z,17.80
2023-05-10T10:13:13.767Z,17.91
2023-05-10T10:14:13.721Z,17.82
2023-05-10T10:15:15.978Z,17.85
2023-05-10T10:16:13.740Z,17.88
2023-05-10T10:17:13.556Z,17.78
2023-05-10T10:18:13.507Z,17.78
2023-05-10T10:19:13.443Z,17.82
2023-05-10T10:20:13.436Z,17.78
2023-05-10T10:21:13.353Z,17.81
2023-05-10T10:22:13.316Z,17.82
2023-05-10T10:23:14.184Z,17.98
2023-05-10T10:24:13.310Z,18.02
2023-05-10T10:25:13.266Z,17.89
2023-05-10T10:26:13.285Z,17.77
2023-05-10T10:27:13.269Z,17.81
2023-05-10T10:28:13.230Z,17.91
2023-05-10T10:29:13.202Z,17.85
2023-05-10T10:30:13.195Z,17.89
2023-05-10T10:31:13.211Z,17.81
2023-05-10T10:32:13.182Z,17.61
2023-05-10T10:33:27.361Z,17.68
2023-05-10T10:34:14.265Z,17.47
2023-05-10T10:35:13.141Z,17.53
2023-05-10T10:36:13.097Z,17.51
2023-05-10T10:37:13.055Z,17.53
2023-05-10T10:38:13.015Z,17.29
2023-05-10T10:39:12.986Z,17.41
2023-05-10T10:40:12.944Z,17.27
2023-05-10T10:41:12.953Z,17.40
2023-05-10T10:42:12.932Z,17.53
2023-05-10T10:43:12.917Z,17.33
2023-05-10T10:44:12.909Z,17.40
2023-05-10T10:45:12.957Z,17.06
2023-05-10T10:46:12.988Z,17.23
2023-05-10T10:47:13.125Z,17.33
2023-05-10T10:48:12.927Z,17.37
2023-05-10T10:49:12.936Z,17.25
2023-05-10T10:50:12.944Z,17.43
2023-05-10T10:51:13.128Z,17.46
2023-05-10T10:52:12.918Z,17.22
2023-05-10T10:53:13.021Z,17.50
2023-05-10T10:54:12.952Z,17.54
2023-05-10T10:55:12.935Z,17.51
2023-05-10T10:56:12.948Z,17.61
2023-05-10T10:57:12.904Z,17.61
2023-05-10T10:58:12.909Z,17.70
2023-05-10T10:59:12.889Z,17.71
2023-05-10T11:00:12.855Z,17.60
2023-05-10T11:01:12.872Z,17.53
2023-05-10T11:02:12.855Z,17.66
2023-05-10T11:03:12.880Z,17.57
2023-05-10T11:04:12.905Z,17.37
2023-05-10T11:05:12.913Z,17.51
2023-05-10T11:06:12.944Z,17.53
2023-05-10T11:07:12.943Z,17.58
2023-05-10T11:08:12.959Z,17.51
2023-05-10T11:09:12.984Z,17.33
2023-05-10T11:10:13.008Z,16.54
2023-05-10T11:11:12.996Z,16.80
2023-05-10T11:12:13.015Z,16.94
2023-05-10T11:13:13.039Z,16.80
2023-05-10T11:14:13.054Z,16.52
2023-05-10T11:15:13.051Z,16.75
2023-05-10T11:16:13.088Z,16.81
2023-05-10T11:17:13.176Z,16.56
2023-05-10T11:18:13.060Z,16.84
2023-05-10T11:19:13.193Z,15.66
2023-05-10T11:20:13.099Z,15.21
2023-05-10T11:21:13.054Z,15.32
2023-05-10T11:22:13.021Z,15.64
2023-05-10T11:23:13.018Z,15.78
2023-05-10T11:24:13.001Z,15.85
2023-05-10T11:25:13.003Z,16.01
2023-05-10T11:26:12.980Z,16.13
2023-05-10T11:27:12.949Z,16.15
2023-05-10T11:28:12.946Z,16.27
2023-05-10T11:29:12.936Z,16.40
2023-05-10T11:30:12.990Z,16.52
2023-05-10T11:31:13.044Z,16.35
2023-05-10T11:32:12.937Z,16.49
2023-05-10T11:33:12.933Z,16.52
2023-05-10T11:34:12.954Z,16.52
2023-05-10T11:35:12.976Z,16.64
2023-05-10T11:36:12.981Z,16.54
2023-05-10T11:37:12.954Z,16.68
2023-05-10T11:38:12.940Z,16.77
2023-05-10T11:39:12.936Z,16.72
2023-05-10T11:40:12.923Z,16.84
2023-05-10T11:41:13.019Z,16.71
2023-05-10T11:42:12.944Z,16.72
2023-05-10T11:43:12.939Z,16.53
2023-05-10T11:44:12.944Z,16.61
2023-05-10T11:45:12.920Z,16.54
2023-05-10T11:46:13.048Z,16.61
2023-05-10T11:47:14.820Z,16.54
2023-05-10T11:48:12.921Z,16.63
2023-05-10T11:49:12.903Z,16.59
2023-05-10T11:50:12.949Z,16.54
2023-05-10T11:51:12.868Z,16.70
2023-05-10T11:52:12.853Z,16.75
2023-05-10T11:53:12.833Z,16.57
2023-05-10T11:54:12.857Z,16.78
2023-05-10T11:55:12.920Z,16.74
2023-05-10T11:56:12.941Z,16.87
2023-05-10T11:57:12.984Z,16.94
2023-05-10T11:58:13.001Z,17.04
2023-05-10T11:59:13.038Z,17.08
2023-05-10T12:00:13.096Z,17.13
2023-05-10T12:01:13.065Z,17.23
2023-05-10T12:02:13.074Z,17.26
2023-05-10T12:03:13.148Z,17.32
2023-05-10T12:04:13.332Z,17.36
2023-05-10T12:05:13.085Z,17.36
2023-05-10T12:06:13.072Z,17.43
2023-05-10T12:07:13.078Z,17.51
2023-05-10T12:08:13.102Z,17.57
2023-05-10T12:09:13.044Z,17.64
2023-05-10T12:10:13.054Z,17.67
2023-05-10T12:11:13.030Z,17.74
2023-05-10T12:12:12.998Z,17.74
2023-05-10T12:13:13.002Z,17.64
2023-05-10T12:14:12.985Z,17.71
2023-05-10T12:15:13.001Z,17.71
2023-05-10T12:16:13.013Z,17.70
2023-05-10T12:17:12.969Z,17.66
2023-05-10T12:18:13.025Z,17.68
2023-05-10T12:19:13.006Z,17.75
2023-05-10T12:20:12.959Z,17.81
2023-05-10T12:21:12.943Z,17.73
2023-05-10T12:22:12.912Z,17.64
2023-05-10T12:23:12.891Z,17.71
2023-05-10T12:24:12.859Z,17.78
2023-05-10T12:25:12.834Z,17.82
2023-05-10T12:26:12.821Z,17.86
2023-05-10T12:27:12.797Z,17.89
2023-05-10T12:28:12.819Z,17.92
2023-05-10T12:29:12.741Z,17.98
2023-05-10T12:30:12.758Z,18.01
2023-05-10T12:31:12.698Z,18.03
2023-05-10T12:32:12.717Z,18.06
2023-05-10T12:33:12.709Z,18.01
2023-05-10T12:34:12.617Z,18.03
2023-05-10T12:35:12.608Z,17.96
2023-05-10T12:36:12.600Z,17.68
2023-05-10T12:37:12.637Z,17.75
2023-05-10T12:38:12.651Z,17.77
2023-05-10T12:39:12.682Z,17.80
2023-05-10T12:40:12.704Z,17.68
2023-05-10T12:41:12.754Z,17.80
2023-05-10T12:42:12.787Z,17.80
2023-05-10T12:43:12.732Z,17.84
2023-05-10T12:44:12.723Z,17.89
2023-05-10T12:45:12.717Z,17.81
2023-05-10T12:46:12.762Z,17.95
2023-05-10T12:47:12.679Z,17.88
2023-05-10T12:48:12.725Z,17.99
2023-05-10T12:49:12.656Z,17.78
2023-05-10T12:50:12.699Z,17.91
2023-05-10T12:51:12.646Z,17.95
2023-05-10T12:52:12.639Z,17.95